Time;durP1;ratioP1;P1;durP2;ratioP2;P2;SDS_P1;SDS_P2;PMS_P1;PMS_P2;Temp;Humidity;BMP_temperature;BMP_pressure;BME280_temperature;BME280_humidity;BME280_pressure;Samples;Min_cycle;Max_cycle;Signal;HPM_P1;HPM_P2
2021/01/23 00:01:22;;;;;;;11.63;5.97;;;;;;;;;;5035922;28;20034;-75
2021/01/23 00:03:50;;;;;;;9.50;5.65;;;;;;;;;;5030988;28;20021;-70
2021/01/23 00:06:17;;;;;;;13.23;5.45;;;;;;;;;;5036072;28;20052;-73
2021/01/23 00:08:43;;;;;;;10.52;6.22;;;;;;;;;;5035034;28;20033;-72
2021/01/23 00:11:09;;;;;;;10.63;5.68;;;;;;;;;;5029897;28;20048;-70
2021/01/23 00:13:35;;;;;;;10.30;5.15;;;;;;;;;;5034576;28;20033;-71
2021/01/23 00:16:01;;;;;;;9.18;5.05;;;;;;;;;;5033554;28;20026;-71
2021/01/23 00:18:27;;;;;;;12.27;6.00;;;;;;;;;;5035530;28;20022;-71
2021/01/23 00:20:53;;;;;;;9.23;4.97;;;;;;;;;;5035406;28;20072;-71
2021/01/23 00:23:19;;;;;;;11.10;5.35;;;;;;;;;;5034380;28;20107;-70
2021/01/23 00:25:45;;;;;;;11.27;5.82;;;;;;;;;;5034957;28;20108;-70
2021/01/23 00:28:11;;;;;;;13.63;6.13;;;;;;;;;;5023117;28;20233;-72
2021/01/23 00:30:37;;;;;;;15.43;4.97;;;;;;;;;;5015126;28;20025;-72
2021/01/23 00:33:03;;;;;;;10.13;5.72;;;;;;;;;;5015884;28;20113;-72
2021/01/23 00:35:29;;;;;;;12.40;6.63;;;;;;;;;;5015902;28;20026;-73
2021/01/23 00:37:55;;;;;;;13.45;6.00;;;;;;;;;;5050492;28;20414;-72
2021/01/23 00:40:21;;;;;;;11.77;6.53;;;;;;;;;;5037045;28;20066;-72
2021/01/23 00:42:47;;;;;;;14.45;7.22;;;;;;;;;;5035508;28;20022;-71
2021/01/23 00:45:14;;;;;;;21.40;7.38;;;;;;;;;;5036150;28;20029;-72
2021/01/23 00:47:40;;;;;;;11.10;5.63;;;;;;;;;;5034877;28;20033;-73
2021/01/23 00:50:06;;;;;;;9.23;5.32;;;;;;;;;;5035181;28;20022;-72
2021/01/23 00:52:32;;;;;;;8.15;5.18;;;;;;;;;;5034697;28;20101;-71
2021/01/23 00:54:58;;;;;;;10.65;4.47;;;;;;;;;;5036843;28;20056;-71
2021/01/23 00:57:24;;;;;;;10.27;6.28;;;;;;;;;;5039936;28;20021;-70
2021/01/23 00:59:50;;;;;;;13.98;5.85;;;;;;;;;;5034756;28;20053;-72
2021/01/23 01:02:16;;;;;;;11.90;5.22;;;;;;;;;;5016926;28;20024;-72
2021/01/23 01:04:42;;;;;;;16.25;5.55;;;;;;;;;;5034534;28;20021;-75
2021/01/23 01:07:08;;;;;;;11.95;5.55;;;;;;;;;;5034220;28;20458;-71
2021/01/23 01:09:34;;;;;;;11.80;5.57;;;;;;;;;;5034790;28;20104;-71
2021/01/23 01:12:00;;;;;;;9.55;5.25;;;;;;;;;;5033573;28;20049;-73
2021/01/23 01:14:26;;;;;;;6.35;4.32;;;;;;;;;;5034199;28;20021;-71
2021/01/23 01:16:52;;;;;;;14.15;5.60;;;;;;;;;;5033946;28;20104;-71
2021/01/23 01:19:18;;;;;;;10.18;5.25;;;;;;;;;;5033830;28;20049;-72
2021/01/23 01:21:44;;;;;;;12.55;6.45;;;;;;;;;;5034373;28;20025;-72
2021/01/23 01:24:11;;;;;;;9.20;5.03;;;;;;;;;;5034038;28;20054;-74
2021/01/23 01:26:37;;;;;;;10.10;5.40;;;;;;;;;;5033594;28;20099;-72
2021/01/23 01:29:03;;;;;;;14.10;6.38;;;;;;;;;;5034060;28;20021;-72
2021/01/23 01:31:29;;;;;;;10.68;4.68;;;;;;;;;;5033906;28;20022;-72
2021/01/23 01:33:55;;;;;;;9.88;6.10;;;;;;;;;;5032796;28;20021;-73
2021/01/23 01:36:21;;;;;;;8.95;6.00;;;;;;;;;;5033707;28;20017;-72
2021/01/23 01:38:47;;;;;;;13.10;5.75;;;;;;;;;;5033541;28;20018;-73
2021/01/23 01:41:14;;;;;;;10.40;4.75;;;;;;;;;;5033336;28;20018;-71
2021/01/23 01:43:41;;;;;;;10.68;4.82;;;;;;;;;;5035425;28;20032;-72
2021/01/23 01:46:08;;;;;;;12.98;4.57;;;;;;;;;;5019253;28;20026;-70
2021/01/23 01:48:35;;;;;;;11.25;6.10;;;;;;;;;;5016176;28;20029;-73
2021/01/23 01:51:01;;;;;;;12.52;6.57;;;;;;;;;;5033849;28;20445;-72
2021/01/23 01:53:27;;;;;;;19.88;6.57;;;;;;;;;;5033673;28;20093;-72
2021/01/23 01:55:54;;;;;;;24.00;7.03;;;;;;;;;;5033209;28;20124;-73
2021/01/23 01:58:20;;;;;;;15.98;7.93;;;;;;;;;;5033321;28;20021;-71
2021/01/23 02:00:46;;;;;;;22.77;8.43;;;;;;;;;;5033136;28;20056;-70
2021/01/23 02:03:30;;;;;;;17.13;7.50;;;;;;;;;;5033037;28;20486;-72
2021/01/23 02:06:00;;;;;;;18.48;5.85;;;;;;;;;;5015615;28;20021;-71
2021/01/23 02:08:34;;;;;;;11.05;4.85;;;;;;;;;;5032942;28;20572;-72
2021/01/23 02:11:05;;;;;;;6.53;4.05;;;;;;;;;;5033345;28;20037;-74
2021/01/23 02:13:34;;;;;;;6.28;3.50;;;;;;;;;;5002546;28;20376;-74
2021/01/23 02:16:10;;;;;;;7.75;3.97;;;;;;;;;;5032786;28;20391;-73
2021/01/23 02:18:41;;;;;;;6.78;4.72;;;;;;;;;;5033157;28;20554;-73
2021/01/23 02:21:19;;;;;;;10.95;4.32;;;;;;;;;;5033347;28;20025;-73
2021/01/23 02:23:47;;;;;;;9.38;4.18;;;;;;;;;;5019998;28;20360;-71
2021/01/23 02:26:27;;;;;;;7.10;4.50;;;;;;;;;;5032986;28;20031;-71
2021/01/23 02:28:59;;;;;;;6.00;3.85;;;;;;;;;;5033060;28;20022;-72
2021/01/23 02:31:27;;;;;;;4.97;2.90;;;;;;;;;;5033335;28;20101;-72
2021/01/23 02:33:53;;;;;;;10.07;4.65;;;;;;;;;;5033003;28;20026;-71
2021/01/23 02:36:21;;;;;;;7.50;3.60;;;;;;;;;;5033194;28;20032;-70
2021/01/23 02:38:48;;;;;;;6.07;3.75;;;;;;;;;;5032880;28;20117;-71
2021/01/23 02:41:15;;;;;;;6.63;3.88;;;;;;;;;;5033261;28;20014;-73
2021/01/23 02:43:43;;;;;;;7.97;3.97;;;;;;;;;;5032538;28;20478;-71
2021/01/23 02:46:10;;;;;;;9.18;4.18;;;;;;;;;;5017222;28;20021;-72
2021/01/23 02:48:37;;;;;;;6.45;4.15;;;;;;;;;;5036948;28;20035;-72
2021/01/23 02:51:03;;;;;;;6.32;3.58;;;;;;;;;;5036420;28;20079;-73
2021/01/23 02:53:32;;;;;;;9.65;3.50;;;;;;;;;;5036819;28;20057;-72
2021/01/23 02:56:03;;;;;;;4.88;3.08;;;;;;;;;;5036852;28;20463;-72
2021/01/23 02:58:31;;;;;;;6.75;3.38;;;;;;;;;;5036696;28;20340;-71
2021/01/23 03:00:59;;;;;;;5.35;3.22;;;;;;;;;;5036876;28;20041;-73
2021/01/23 03:03:25;;;;;;;9.98;4.07;;;;;;;;;;5036913;28;20072;-72
2021/01/23 03:05:52;;;;;;;7.30;4.07;;;;;;;;;;5036277;28;20056;-73
2021/01/23 03:08:18;;;;;;;6.32;3.28;;;;;;;;;;5036236;28;20044;-73
2021/01/23 03:10:45;;;;;;;6.93;4.18;;;;;;;;;;5037075;28;20050;-72
2021/01/23 03:13:12;;;;;;;9.80;4.55;;;;;;;;;;5036905;28;20025;-74
2021/01/23 03:15:38;;;;;;;10.20;4.78;;;;;;;;;;5037605;28;20040;-73
2021/01/23 03:18:05;;;;;;;15.68;5.25;;;;;;;;;;5037053;28;20036;-75
2021/01/23 03:20:31;;;;;;;9.80;5.63;;;;;;;;;;5036951;28;20025;-71
2021/01/23 03:22:57;;;;;;;18.33;8.85;;;;;;;;;;5036823;28;20023;-73
2021/01/23 03:25:24;;;;;;;19.75;9.05;;;;;;;;;;5036231;28;20362;-73
2021/01/23 03:27:50;;;;;;;26.25;9.43;;;;;;;;;;5036315;28;20068;-73
2021/01/23 03:30:17;;;;;;;30.95;10.07;;;;;;;;;;5018578;28;20425;-73
2021/01/23 03:32:43;;;;;;;23.15;8.85;;;;;;;;;;5036034;28;20044;-72
2021/01/23 03:35:10;;;;;;;19.45;7.28;;;;;;;;;;5036241;28;20024;-72
2021/01/23 03:37:36;;;;;;;19.98;5.28;;;;;;;;;;5036205;28;20033;-71
2021/01/23 03:40:03;;;;;;;6.82;3.20;;;;;;;;;;5038255;28;20105;-71
2021/01/23 03:42:29;;;;;;;6.47;3.65;;;;;;;;;;5038357;28;20036;-72
2021/01/23 03:44:55;;;;;;;6.43;3.30;;;;;;;;;;5036314;28;20021;-73
2021/01/23 03:47:21;;;;;;;8.82;2.97;;;;;;;;;;5035462;28;20017;-72
2021/01/23 03:49:47;;;;;;;8.13;4.43;;;;;;;;;;5018208;28;20490;-72
2021/01/23 03:52:13;;;;;;;11.18;4.63;;;;;;;;;;5035715;28;20032;-72
2021/01/23 03:54:40;;;;;;;14.13;4.93;;;;;;;;;;5035097;28;20387;-72
2021/01/23 03:57:06;;;;;;;12.77;5.68;;;;;;;;;;5034755;28;20025;-73
2021/01/23 03:59:32;;;;;;;11.60;5.53;;;;;;;;;;5035821;28;20046;-70
2021/01/23 04:01:58;;;;;;;12.88;5.43;;;;;;;;;;5035521;28;20426;-72
2021/01/23 04:04:24;;;;;;;16.42;4.10;;;;;;;;;;5017889;28;20075;-74
2021/01/23 04:06:50;;;;;;;8.35;3.72;;;;;;;;;;5034912;28;20037;-72
2021/01/23 04:09:16;;;;;;;10.68;4.35;;;;;;;;;;5035273;28;20026;-74
2021/01/23 04:11:42;;;;;;;6.72;3.20;;;;;;;;;;5035199;28;20032;-72
2021/01/23 04:14:08;;;;;;;6.32;3.28;;;;;;;;;;5035315;28;20025;-73
2021/01/23 04:16:34;;;;;;;8.40;4.20;;;;;;;;;;5035664;28;20036;-73
2021/01/23 04:19:00;;;;;;;9.18;3.20;;;;;;;;;;5038016;28;20042;-71
2021/01/23 04:21:26;;;;;;;5.10;2.67;;;;;;;;;;5037044;28;20021;-70
2021/01/23 04:23:53;;;;;;;6.32;3.00;;;;;;;;;;5040396;28;20032;-69
2021/01/23 04:26:19;;;;;;;6.85;3.60;;;;;;;;;;5039509;28;20034;-71
2021/01/23 04:28:45;;;;;;;5.57;3.28;;;;;;;;;;5038264;28;20067;-72
2021/01/23 04:31:11;;;;;;;5.88;2.45;;;;;;;;;;5019558;28;20509;-70
2021/01/23 04:33:37;;;;;;;6.10;2.92;;;;;;;;;;5035184;28;20398;-71
2021/01/23 04:36:03;;;;;;;8.82;4.10;;;;;;;;;;5035199;28;20116;-72
2021/01/23 04:38:29;;;;;;;5.13;3.03;;;;;;;;;;5034844;28;20075;-74
2021/01/23 04:40:56;;;;;;;6.13;2.97;;;;;;;;;;5035108;28;20532;-70
2021/01/23 04:43:22;;;;;;;10.45;3.47;;;;;;;;;;5034810;28;20080;-72
2021/01/23 04:45:49;;;;;;;4.88;3.38;;;;;;;;;;5036574;28;20025;-71
2021/01/23 04:48:18;;;;;;;4.28;3.20;;;;;;;;;;5036176;28;20450;-73
2021/01/23 04:50:44;;;;;;;7.45;3.67;;;;;;;;;;5017753;28;20064;-71
2021/01/23 04:53:10;;;;;;;6.82;3.42;;;;;;;;;;5034787;28;20029;-72
2021/01/23 04:55:36;;;;;;;21.42;6.95;;;;;;;;;;5034876;28;20080;-73
2021/01/23 04:58:03;;;;;;;33.33;11.25;;;;;;;;;;5034107;28;20044;-74
2021/01/23 05:00:29;;;;;;;30.52;10.20;;;;;;;;;;5026258;28;20372;-71
2021/01/23 05:02:59;;;;;;;31.88;10.48;;;;;;;;;;5034281;28;20017;-71
2021/01/23 05:05:25;;;;;;;23.52;9.25;;;;;;;;;;5034723;28;20100;-72
2021/01/23 05:07:51;;;;;;;23.13;8.95;;;;;;;;;;5034454;28;20029;-71
2021/01/23 05:10:18;;;;;;;27.33;10.45;;;;;;;;;;5033357;28;20096;-71
2021/01/23 05:12:46;;;;;;;23.42;8.43;;;;;;;;;;5034484;28;20079;-71
2021/01/23 05:15:22;;;;;;;11.93;6.35;;;;;;;;;;5034228;28;20022;-73
2021/01/23 05:17:51;;;;;;;17.65;8.32;;;;;;;;;;5032974;28;20051;-73
2021/01/23 05:20:33;;;;;;;17.15;8.55;;;;;;;;;;5034445;28;20017;-73
2021/01/23 05:23:00;;;;;;;37.83;10.98;;;;;;;;;;5034303;28;20075;-73
2021/01/23 05:25:26;;;;;;;38.38;10.27;;;;;;;;;;5033653;28;20092;-73
2021/01/23 05:27:52;;;;;;;22.38;10.52;;;;;;;;;;5034224;28;20026;-73
2021/01/23 05:30:19;;;;;;;21.17;8.15;;;;;;;;;;5034089;28;20479;-74
2021/01/23 05:32:45;;;;;;;12.07;5.75;;;;;;;;;;5034182;28;20180;-72
2021/01/23 05:35:15;;;;;;;21.48;5.55;;;;;;;;;;5033955;28;20025;-71
2021/01/23 05:37:41;;;;;;;11.25;4.88;;;;;;;;;;5033648;28;20059;-73
2021/01/23 05:40:07;;;;;;;14.13;5.95;;;;;;;;;;5033566;28;20079;-70
2021/01/23 05:42:43;;;;;;;13.82;5.93;;;;;;;;;;5033940;28;20076;-72
2021/01/23 05:45:10;;;;;;;11.13;5.97;;;;;;;;;;5033291;28;20029;-73
2021/01/23 05:47:36;;;;;;;23.25;9.13;;;;;;;;;;5033727;28;20025;-73
2021/01/23 05:50:03;;;;;;;24.60;8.45;;;;;;;;;;5034009;28;20025;-72
2021/01/23 05:52:29;;;;;;;29.05;9.65;;;;;;;;;;5033098;28;20025;-71
2021/01/23 05:54:56;;;;;;;36.03;13.48;;;;;;;;;;5034018;28;20096;-72
2021/01/23 05:57:22;;;;;;;48.50;14.48;;;;;;;;;;5034155;28;20545;-74
2021/01/23 05:59:49;;;;;;;33.28;11.98;;;;;;;;;;5033168;28;20049;-71
2021/01/23 06:02:15;;;;;;;32.50;11.63;;;;;;;;;;5033534;28;20029;-72
2021/01/23 06:04:42;;;;;;;31.75;12.40;;;;;;;;;;5033789;28;20104;-71
2021/01/23 06:07:11;;;;;;;27.02;11.77;;;;;;;;;;5033039;28;20344;-71
2021/01/23 06:09:42;;;;;;;23.20;11.52;;;;;;;;;;5015780;28;20033;-71
2021/01/23 06:12:27;;;;;;;41.20;15.57;;;;;;;;;;5033408;28;20017;-72
2021/01/23 06:14:53;;;;;;;29.55;11.85;;;;;;;;;;5032740;28;20022;-72
2021/01/23 06:17:46;;;;;;;22.25;8.95;;;;;;;;;;5033202;28;20071;-72
2021/01/23 06:20:32;;;;;;;13.17;4.90;;;;;;;;;;5032475;28;20049;-73
2021/01/23 06:22:58;;;;;;;12.45;4.95;;;;;;;;;;5033415;28;20250;-73
2021/01/23 06:25:24;;;;;;;7.05;3.83;;;;;;;;;;5033094;28;20025;-72
2021/01/23 06:27:50;;;;;;;7.82;3.67;;;;;;;;;;5038845;28;20036;-71
2021/01/23 06:30:28;;;;;;;6.45;3.67;;;;;;;;;;5043856;28;20036;-73
2021/01/23 06:32:55;;;;;;;5.65;2.97;;;;;;;;;;5031213;28;20493;-71
2021/01/23 06:35:21;;;;;;;4.72;3.03;;;;;;;;;;5024848;28;20525;-72
2021/01/23 06:37:47;;;;;;;7.07;2.30;;;;;;;;;;5040351;28;20096;-71
2021/01/23 06:40:17;;;;;;;2.90;1.98;;;;;;;;;;5041327;28;20069;-73
2021/01/23 06:42:47;;;;;;;5.50;3.08;;;;;;;;;;5042706;28;20094;-74
2021/01/23 06:45:16;;;;;;;5.78;3.15;;;;;;;;;;5037197;28;20021;-72
2021/01/23 06:47:43;;;;;;;3.40;2.28;;;;;;;;;;5032878;28;20069;-70
2021/01/23 06:50:10;;;;;;;9.07;2.65;;;;;;;;;;5032631;28;20022;-73
2021/01/23 06:52:46;;;;;;;6.35;2.97;;;;;;;;;;5032987;28;20029;-74
2021/01/23 06:55:12;;;;;;;10.98;3.75;;;;;;;;;;5032751;28;20017;-73
2021/01/23 06:57:45;;;;;;;7.68;3.05;;;;;;;;;;5033027;28;20160;-70
2021/01/23 07:00:12;;;;;;;10.65;3.78;;;;;;;;;;5032886;28;20049;-74
2021/01/23 07:02:38;;;;;;;12.48;4.25;;;;;;;;;;5033213;28;20027;-70
2021/01/23 07:05:07;;;;;;;5.85;2.92;;;;;;;;;;5034051;28;20018;-70
2021/01/23 07:07:36;;;;;;;20.75;4.18;;;;;;;;;;5015520;28;20037;-71
2021/01/23 07:10:05;;;;;;;12.48;4.07;;;;;;;;;;5032225;28;20018;-71
2021/01/23 07:12:41;;;;;;;7.78;4.28;;;;;;;;;;5032897;28;20029;-72
2021/01/23 07:15:10;;;;;;;12.65;4.47;;;;;;;;;;5031974;28;20374;-70
2021/01/23 07:17:37;;;;;;;6.30;3.60;;;;;;;;;;5032677;28;20420;-71
2021/01/23 07:20:21;;;;;;;11.57;4.88;;;;;;;;;;5036769;28;20029;-72
2021/01/23 07:22:48;;;;;;;11.02;4.07;;;;;;;;;;5036512;28;20029;-68
2021/01/23 07:25:15;;;;;;;8.65;3.20;;;;;;;;;;5031601;28;20056;-70
2021/01/23 07:27:42;;;;;;;8.02;4.45;;;;;;;;;;5029015;28;20033;-69
2021/01/23 07:30:11;;;;;;;11.95;4.95;;;;;;;;;;5031724;28;20040;-72
2021/01/23 07:32:44;;;;;;;19.25;9.40;;;;;;;;;;5032836;28;20022;-72
2021/01/23 07:35:12;;;;;;;41.20;14.27;;;;;;;;;;5035319;28;20026;-72
2021/01/23 07:37:38;;;;;;;25.83;9.80;;;;;;;;;;5031311;28;20057;-72
2021/01/23 07:40:05;;;;;;;33.80;11.68;;;;;;;;;;5033260;28;20035;-72
2021/01/23 07:42:31;;;;;;;27.33;12.07;;;;;;;;;;5037000;28;20095;-71
2021/01/23 07:44:59;;;;;;;31.45;12.52;;;;;;;;;;5020412;28;20428;-71
2021/01/23 07:47:25;;;;;;;30.92;11.25;;;;;;;;;;5032535;28;20033;-69
2021/01/23 07:50:02;;;;;;;18.58;8.15;;;;;;;;;;5033475;28;20044;-71
2021/01/23 07:52:28;;;;;;;22.60;8.38;;;;;;;;;;5036241;28;20502;-69
2021/01/23 07:54:54;;;;;;;25.33;9.00;;;;;;;;;;5034806;28;20475;-70
2021/01/23 07:57:20;;;;;;;13.00;7.03;;;;;;;;;;5035372;28;20032;-71
2021/01/23 07:59:47;;;;;;;19.13;8.13;;;;;;;;;;5033729;28;20037;-71
2021/01/23 08:02:13;;;;;;;16.77;7.47;;;;;;;;;;5034276;28;20029;-74
2021/01/23 08:04:40;;;;;;;25.83;9.25;;;;;;;;;;5038478;28;20021;-70
2021/01/23 08:07:18;;;;;;;18.88;9.82;;;;;;;;;;5053439;28;20106;-73
2021/01/23 08:09:44;;;;;;;27.23;10.68;;;;;;;;;;5051889;28;20033;-71
2021/01/23 08:12:18;;;;;;;22.48;10.10;;;;;;;;;;5046117;28;20022;-71
2021/01/23 08:14:54;;;;;;;23.05;10.65;;;;;;;;;;5039181;28;20037;-70
2021/01/23 08:17:20;;;;;;;22.40;9.13;;;;;;;;;;5033729;28;20130;-70
2021/01/23 08:19:52;;;;;;;26.40;10.48;;;;;;;;;;5038808;28;20033;-68
2021/01/23 08:22:19;;;;;;;26.55;9.52;;;;;;;;;;5034455;28;20048;-69
2021/01/23 08:24:45;;;;;;;22.02;8.60;;;;;;;;;;5039728;28;20025;-70
2021/01/23 08:27:15;;;;;;;23.50;7.85;;;;;;;;;;5053226;28;20163;-72
2021/01/23 08:29:45;;;;;;;26.55;9.63;;;;;;;;;;5041992;28;20044;-69
2021/01/23 08:32:11;;;;;;;20.95;7.35;;;;;;;;;;5029202;28;20013;-72
2021/01/23 08:34:37;;;;;;;14.10;5.10;;;;;;;;;;5036262;28;20025;-71
2021/01/23 08:37:03;;;;;;;11.38;4.95;;;;;;;;;;5050299;28;20028;-72
2021/01/23 08:39:29;;;;;;;18.77;6.63;;;;;;;;;;5036140;28;20112;-72
2021/01/23 08:41:56;;;;;;;11.07;5.43;;;;;;;;;;5036596;28;20021;-73
2021/01/23 08:44:22;;;;;;;40.95;13.20;;;;;;;;;;5035945;28;20375;-73
2021/01/23 08:46:48;;;;;;;28.85;9.93;;;;;;;;;;5032683;28;20426;-74
2021/01/23 08:49:14;;;;;;;34.10;9.52;;;;;;;;;;5032732;28;20029;-74
2021/01/23 08:51:40;;;;;;;30.48;8.02;;;;;;;;;;5015722;28;20419;-72
2021/01/23 08:54:06;;;;;;;22.45;9.68;;;;;;;;;;5030453;28;20032;-72
2021/01/23 08:56:32;;;;;;;11.18;5.15;;;;;;;;;;5036631;28;20025;-72
2021/01/23 08:58:58;;;;;;;10.98;4.80;;;;;;;;;;5032677;28;20112;-71
2021/01/23 09:01:24;;;;;;;11.25;4.40;;;;;;;;;;5038506;28;20067;-72
2021/01/23 09:03:50;;;;;;;9.80;3.90;;;;;;;;;;5035955;28;20212;-72
2021/01/23 09:06:16;;;;;;;9.95;5.22;;;;;;;;;;5037139;28;20113;-72
2021/01/23 09:08:42;;;;;;;21.02;7.72;;;;;;;;;;5035779;28;20024;-73
2021/01/23 09:11:08;;;;;;;17.70;7.85;;;;;;;;;;5045252;28;20026;-72
2021/01/23 09:13:34;;;;;;;24.50;9.02;;;;;;;;;;5050115;28;20029;-75
